sensor_id;sensor_type;location;lat;lon;timestamp;P1;durP1;ratioP1;P2;durP2;ratioP2
13590;SDS011;6866;50.778;7.206;2023-03-24T00:01:09;3.13;;;1.23;;
13590;SDS011;6866;50.778;7.206;2023-03-24T00:03:35;3.30;;;1.30;;
13590;SDS011;6866;50.778;7.206;2023-03-24T00:06:01;4.47;;;1.30;;
13590;SDS011;6866;50.778;7.206;2023-03-24T00:08:29;5.88;;;1.40;;
13590;SDS011;6866;50.778;7.206;2023-03-24T00:10:59;4.00;;;1.50;;
13590;SDS011;6866;50.778;7.206;2023-03-24T00:13:28;2.70;;;1.30;;
13590;SDS011;6866;50.778;7.206;2023-03-24T00:15:55;3.33;;;1.50;;
13590;SDS011;6866;50.778;7.206;2023-03-24T00:18:22;3.53;;;1.60;;
13590;SDS011;6866;50.778;7.206;2023-03-24T00:20:50;4.10;;;1.60;;
13590;SDS011;6866;50.778;7.206;2023-03-24T00:23:22;2.75;;;1.30;;
13590;SDS011;6866;50.778;7.206;2023-03-24T00:26:08;3.67;;;1.42;;
13590;SDS011;6866;50.778;7.206;2023-03-24T00:28:39;3.50;;;1.30;;
13590;SDS011;6866;50.778;7.206;2023-03-24T00:31:07;2.63;;;1.33;;
13590;SDS011;6866;50.778;7.206;2023-03-24T00:33:34;4.60;;;1.40;;
13590;SDS011;6866;50.778;7.206;2023-03-24T00:36:04;4.43;;;1.60;;
13590;SDS011;6866;50.778;7.206;2023-03-24T00:38:32;3.50;;;1.45;;
13590;SDS011;6866;50.778;7.206;2023-03-24T00:40:59;4.18;;;1.60;;
13590;SDS011;6866;50.778;7.206;2023-03-24T00:43:25;3.58;;;1.50;;
13590;SDS011;6866;50.778;7.206;2023-03-24T00:45:59;3.88;;;1.48;;
13590;SDS011;6866;50.778;7.206;2023-03-24T00:48:26;5.22;;;1.63;;
13590;SDS011;6866;50.778;7.206;2023-03-24T00:50:53;4.25;;;1.40;;
13590;SDS011;6866;50.778;7.206;2023-03-24T00:53:19;4.00;;;1.75;;
13590;SDS011;6866;50.778;7.206;2023-03-24T00:55:53;4.53;;;1.50;;
13590;SDS011;6866;50.778;7.206;2023-03-24T00:58:19;4.60;;;1.65;;
13590;SDS011;6866;50.778;7.206;2023-03-24T01:00:48;3.38;;;1.55;;
13590;SDS011;6866;50.778;7.206;2023-03-24T01:03:16;3.55;;;1.60;;
13590;SDS011;6866;50.778;7.206;2023-03-24T01:05:43;6.35;;;1.63;;
13590;SDS011;6866;50.778;7.206;2023-03-24T01:08:12;2.92;;;1.52;;
13590;SDS011;6866;50.778;7.206;2023-03-24T01:10:39;4.68;;;1.92;;
13590;SDS011;6866;50.778;7.206;2023-03-24T01:13:17;5.38;;;1.60;;
13590;SDS011;6866;50.778;7.206;2023-03-24T01:15:47;3.63;;;1.67;;
13590;SDS011;6866;50.778;7.206;2023-03-24T01:18:13;4.15;;;1.52;;
13590;SDS011;6866;50.778;7.206;2023-03-24T01:20:43;3.58;;;1.70;;
13590;SDS011;6866;50.778;7.206;2023-03-24T01:23:14;3.05;;;1.50;;
13590;SDS011;6866;50.778;7.206;2023-03-24T01:25:43;4.78;;;1.92;;
13590;SDS011;6866;50.778;7.206;2023-03-24T01:28:12;4.35;;;1.67;;
13590;SDS011;6866;50.778;7.206;2023-03-24T01:30:38;2.95;;;1.50;;
13590;SDS011;6866;50.778;7.206;2023-03-24T01:33:04;4.68;;;1.85;;
13590;SDS011;6866;50.778;7.206;2023-03-24T01:35:30;3.85;;;1.85;;
13590;SDS011;6866;50.778;7.206;2023-03-24T01:37:57;4.65;;;1.77;;
13590;SDS011;6866;50.778;7.206;2023-03-24T01:40:27;3.50;;;1.80;;
13590;SDS011;6866;50.778;7.206;2023-03-24T01:42:56;4.13;;;2.03;;
13590;SDS011;6866;50.778;7.206;2023-03-24T01:45:39;4.47;;;1.80;;
13590;SDS011;6866;50.778;7.206;2023-03-24T01:48:11;3.10;;;1.58;;
13590;SDS011;6866;50.778;7.206;2023-03-24T01:50:44;4.35;;;1.80;;
13590;SDS011;6866;50.778;7.206;2023-03-24T01:53:15;4.55;;;1.95;;
13590;SDS011;6866;50.778;7.206;2023-03-24T01:55:41;6.43;;;2.10;;
13590;SDS011;6866;50.778;7.206;2023-03-24T01:58:09;5.50;;;1.60;;
13590;SDS011;6866;50.778;7.206;2023-03-24T02:05:39;3.90;;;1.80;;
13590;SDS011;6866;50.778;7.206;2023-03-24T02:08:25;4.60;;;2.13;;
13590;SDS011;6866;50.778;7.206;2023-03-24T02:10:56;4.55;;;1.80;;
13590;SDS011;6866;50.778;7.206;2023-03-24T02:13:22;3.50;;;1.92;;
13590;SDS011;6866;50.778;7.206;2023-03-24T02:18:42;6.68;;;2.20;;
13590;SDS011;6866;50.778;7.206;2023-03-24T02:26:54;5.13;;;2.17;;
13590;SDS011;6866;50.778;7.206;2023-03-24T02:29:38;7.93;;;2.05;;
13590;SDS011;6866;50.778;7.206;2023-03-24T02:32:29;4.22;;;2.22;;
13590;SDS011;6866;50.778;7.206;2023-03-24T02:40:39;5.78;;;2.35;;
13590;SDS011;6866;50.778;7.206;2023-03-24T02:51:16;5.18;;;1.90;;
13590;SDS011;6866;50.778;7.206;2023-03-24T02:53:57;4.57;;;2.20;;
13590;SDS011;6866;50.778;7.206;2023-03-24T02:56:43;4.30;;;1.90;;
13590;SDS011;6866;50.778;7.206;2023-03-24T02:59:29;3.92;;;2.08;;
13590;SDS011;6866;50.778;7.206;2023-03-24T03:02:02;4.97;;;2.17;;
13590;SDS011;6866;50.778;7.206;2023-03-24T03:04:44;4.03;;;2.33;;
13590;SDS011;6866;50.778;7.206;2023-03-24T03:07:14;3.38;;;1.83;;
13590;SDS011;6866;50.778;7.206;2023-03-24T03:09:51;4.45;;;2.22;;
13590;SDS011;6866;50.778;7.206;2023-03-24T03:12:20;6.22;;;2.60;;
13590;SDS011;6866;50.778;7.206;2023-03-24T03:14:50;5.60;;;2.40;;
13590;SDS011;6866;50.778;7.206;2023-03-24T03:17:27;4.82;;;2.38;;
13590;SDS011;6866;50.778;7.206;2023-03-24T03:19:59;4.40;;;2.40;;
13590;SDS011;6866;50.778;7.206;2023-03-24T03:22:32;4.55;;;2.20;;
13590;SDS011;6866;50.778;7.206;2023-03-24T03:25:02;5.05;;;2.75;;
13590;SDS011;6866;50.778;7.206;2023-03-24T03:27:29;4.43;;;2.72;;
13590;SDS011;6866;50.778;7.206;2023-03-24T03:30:04;5.90;;;2.63;;
13590;SDS011;6866;50.778;7.206;2023-03-24T03:32:33;6.68;;;2.53;;
13590;SDS011;6866;50.778;7.206;2023-03-24T03:35:08;5.07;;;2.67;;
13590;SDS011;6866;50.778;7.206;2023-03-24T03:40:31;4.60;;;2.40;;
13590;SDS011;6866;50.778;7.206;2023-03-24T03:43:02;4.15;;;2.65;;
13590;SDS011;6866;50.778;7.206;2023-03-24T03:45:29;4.45;;;2.80;;
13590;SDS011;6866;50.778;7.206;2023-03-24T03:47:54;8.05;;;2.83;;
13590;SDS011;6866;50.778;7.206;2023-03-24T03:50:20;5.38;;;3.00;;
13590;SDS011;6866;50.778;7.206;2023-03-24T03:52:46;5.05;;;2.50;;
13590;SDS011;6866;50.778;7.206;2023-03-24T03:55:12;5.28;;;2.95;;
13590;SDS011;6866;50.778;7.206;2023-03-24T03:57:38;5.47;;;2.80;;
13590;SDS011;6866;50.778;7.206;2023-03-24T04:00:05;5.25;;;2.72;;
13590;SDS011;6866;50.778;7.206;2023-03-24T04:05:37;6.20;;;2.50;;
13590;SDS011;6866;50.778;7.206;2023-03-24T04:08:16;4.65;;;2.60;;
13590;SDS011;6866;50.778;7.206;2023-03-24T04:13:53;4.45;;;2.78;;
13590;SDS011;6866;50.778;7.206;2023-03-24T04:22:34;4.10;;;2.30;;
13590;SDS011;6866;50.778;7.206;2023-03-24T04:28:01;4.55;;;2.00;;
13590;SDS011;6866;50.778;7.206;2023-03-24T04:35:44;2.85;;;1.90;;
13590;SDS011;6866;50.778;7.206;2023-03-24T04:38:13;5.90;;;2.10;;
13590;SDS011;6866;50.778;7.206;2023-03-24T04:40:47;3.63;;;1.95;;
13590;SDS011;6866;50.778;7.206;2023-03-24T04:43:14;3.28;;;2.00;;
13590;SDS011;6866;50.778;7.206;2023-03-24T04:45:44;3.58;;;1.83;;
13590;SDS011;6866;50.778;7.206;2023-03-24T04:48:13;3.50;;;1.90;;
13590;SDS011;6866;50.778;7.206;2023-03-24T04:50:42;4.32;;;2.10;;
13590;SDS011;6866;50.778;7.206;2023-03-24T04:53:13;3.95;;;1.80;;
13590;SDS011;6866;50.778;7.206;2023-03-24T04:58:14;3.20;;;1.70;;
13590;SDS011;6866;50.778;7.206;2023-03-24T05:00:44;3.20;;;1.63;;
13590;SDS011;6866;50.778;7.206;2023-03-24T05:03:10;4.72;;;1.70;;
13590;SDS011;6866;50.778;7.206;2023-03-24T05:05:39;3.60;;;1.95;;
13590;SDS011;6866;50.778;7.206;2023-03-24T05:08:09;5.13;;;1.73;;
13590;SDS011;6866;50.778;7.206;2023-03-24T05:10:35;3.53;;;1.58;;
13590;SDS011;6866;50.778;7.206;2023-03-24T05:13:01;3.45;;;1.67;;
13590;SDS011;6866;50.778;7.206;2023-03-24T05:15:28;3.53;;;1.70;;
13590;SDS011;6866;50.778;7.206;2023-03-24T05:17:53;4.25;;;1.70;;
13590;SDS011;6866;50.778;7.206;2023-03-24T05:20:19;3.15;;;1.40;;
13590;SDS011;6866;50.778;7.206;2023-03-24T05:22:45;3.88;;;1.70;;
13590;SDS011;6866;50.778;7.206;2023-03-24T05:25:10;3.80;;;1.75;;
13590;SDS011;6866;50.778;7.206;2023-03-24T05:27:36;3.72;;;1.30;;
13590;SDS011;6866;50.778;7.206;2023-03-24T05:30:03;4.28;;;1.27;;
13590;SDS011;6866;50.778;7.206;2023-03-24T05:32:31;6.38;;;1.30;;
13590;SDS011;6866;50.778;7.206;2023-03-24T05:34:56;4.25;;;1.30;;
13590;SDS011;6866;50.778;7.206;2023-03-24T05:37:22;4.32;;;1.20;;
13590;SDS011;6866;50.778;7.206;2023-03-24T05:39:48;4.70;;;1.15;;
13590;SDS011;6866;50.778;7.206;2023-03-24T05:42:14;4.18;;;1.20;;
13590;SDS011;6866;50.778;7.206;2023-03-24T05:44:41;2.60;;;0.93;;
13590;SDS011;6866;50.778;7.206;2023-03-24T05:47:07;3.28;;;1.25;;
13590;SDS011;6866;50.778;7.206;2023-03-24T05:49:33;4.65;;;1.15;;
13590;SDS011;6866;50.778;7.206;2023-03-24T05:51:58;2.72;;;1.23;;
13590;SDS011;6866;50.778;7.206;2023-03-24T05:54:24;2.92;;;1.30;;
13590;SDS011;6866;50.778;7.206;2023-03-24T05:56:50;4.28;;;1.50;;
13590;SDS011;6866;50.778;7.206;2023-03-24T05:59:16;4.45;;;1.20;;
13590;SDS011;6866;50.778;7.206;2023-03-24T06:01:41;5.45;;;1.30;;
13590;SDS011;6866;50.778;7.206;2023-03-24T06:04:07;5.30;;;1.38;;
13590;SDS011;6866;50.778;7.206;2023-03-24T06:06:33;6.70;;;1.60;;
13590;SDS011;6866;50.778;7.206;2023-03-24T06:08:59;3.88;;;1.58;;
13590;SDS011;6866;50.778;7.206;2023-03-24T06:11:26;6.20;;;1.85;;
13590;SDS011;6866;50.778;7.206;2023-03-24T06:13:52;4.78;;;1.33;;
13590;SDS011;6866;50.778;7.206;2023-03-24T06:16:23;4.53;;;1.33;;
13590;SDS011;6866;50.778;7.206;2023-03-24T06:18:52;4.97;;;1.63;;
13590;SDS011;6866;50.778;7.206;2023-03-24T06:21:17;4.38;;;1.40;;
13590;SDS011;6866;50.778;7.206;2023-03-24T06:23:43;6.18;;;1.70;;
13590;SDS011;6866;50.778;7.206;2023-03-24T06:26:10;4.68;;;1.55;;
13590;SDS011;6866;50.778;7.206;2023-03-24T06:28:37;3.63;;;1.48;;
13590;SDS011;6866;50.778;7.206;2023-03-24T06:31:06;4.10;;;1.52;;
13590;SDS011;6866;50.778;7.206;2023-03-24T06:33:44;5.30;;;1.70;;
13590;SDS011;6866;50.778;7.206;2023-03-24T06:36:14;3.70;;;1.58;;
13590;SDS011;6866;50.778;7.206;2023-03-24T06:38:40;6.07;;;1.50;;
13590;SDS011;6866;50.778;7.206;2023-03-24T06:41:06;3.65;;;1.60;;
13590;SDS011;6866;50.778;7.206;2023-03-24T06:43:32;4.53;;;1.70;;
13590;SDS011;6866;50.778;7.206;2023-03-24T06:45:58;5.43;;;1.70;;
13590;SDS011;6866;50.778;7.206;2023-03-24T06:48:24;3.75;;;1.40;;
13590;SDS011;6866;50.778;7.206;2023-03-24T06:50:51;4.25;;;1.55;;
13590;SDS011;6866;50.778;7.206;2023-03-24T06:53:17;4.07;;;1.60;;
13590;SDS011;6866;50.778;7.206;2023-03-24T06:55:43;3.97;;;1.50;;
13590;SDS011;6866;50.778;7.206;2023-03-24T06:58:08;4.95;;;1.67;;
13590;SDS011;6866;50.778;7.206;2023-03-24T07:00:34;4.93;;;1.58;;
13590;SDS011;6866;50.778;7.206;2023-03-24T07:03:00;7.20;;;1.73;;
13590;SDS011;6866;50.778;7.206;2023-03-24T07:05:27;5.38;;;1.77;;
13590;SDS011;6866;50.778;7.206;2023-03-24T07:07:53;4.68;;;1.73;;
13590;SDS011;6866;50.778;7.206;2023-03-24T07:10:18;4.57;;;1.80;;
13590;SDS011;6866;50.778;7.206;2023-03-24T07:12:45;5.10;;;1.85;;
13590;SDS011;6866;50.778;7.206;2023-03-24T07:15:12;6.20;;;2.00;;
13590;SDS011;6866;50.778;7.206;2023-03-24T07:17:39;7.00;;;1.83;;
13590;SDS011;6866;50.778;7.206;2023-03-24T07:20:05;6.05;;;1.80;;
13590;SDS011;6866;50.778;7.206;2023-03-24T07:22:33;9.07;;;2.15;;
13590;SDS011;6866;50.778;7.206;2023-03-24T07:25:02;5.10;;;1.98;;
13590;SDS011;6866;50.778;7.206;2023-03-24T07:27:29;7.72;;;1.90;;
13590;SDS011;6866;50.778;7.206;2023-03-24T07:29:59;6.00;;;2.00;;
13590;SDS011;6866;50.778;7.206;2023-03-24T07:32:28;5.90;;;1.90;;
13590;SDS011;6866;50.778;7.206;2023-03-24T07:34:54;9.55;;;2.35;;
13590;SDS011;6866;50.778;7.206;2023-03-24T07:37:21;5.90;;;1.92;;
13590;SDS011;6866;50.778;7.206;2023-03-24T07:39:47;7.68;;;2.03;;
13590;SDS011;6866;50.778;7.206;2023-03-24T07:42:12;7.32;;;1.80;;
13590;SDS011;6866;50.778;7.206;2023-03-24T07:44:38;7.28;;;2.10;;
13590;SDS011;6866;50.778;7.206;2023-03-24T07:47:03;7.82;;;1.80;;
13590;SDS011;6866;50.778;7.206;2023-03-24T07:49:29;7.85;;;2.17;;
13590;SDS011;6866;50.778;7.206;2023-03-24T07:51:55;8.05;;;1.98;;
13590;SDS011;6866;50.778;7.206;2023-03-24T07:54:22;8.15;;;2.15;;
13590;SDS011;6866;50.778;7.206;2023-03-24T07:56:48;9.88;;;2.38;;
13590;SDS011;6866;50.778;7.206;2023-03-24T07:59:14;7.28;;;2.22;;
13590;SDS011;6866;50.778;7.206;2023-03-24T08:01:41;5.32;;;1.80;;
13590;SDS011;6866;50.778;7.206;2023-03-24T08:04:08;11.43;;;2.17;;
13590;SDS011;6866;50.778;7.206;2023-03-24T08:06:35;11.57;;;2.38;;
13590;SDS011;6866;50.778;7.206;2023-03-24T08:09:01;9.73;;;2.20;;
13590;SDS011;6866;50.778;7.206;2023-03-24T08:11:28;9.35;;;2.00;;
13590;SDS011;6866;50.778;7.206;2023-03-24T08:13:53;8.77;;;2.40;;
13590;SDS011;6866;50.778;7.206;2023-03-24T08:16:19;9.02;;;2.60;;
13590;SDS011;6866;50.778;7.206;2023-03-24T08:18:45;7.95;;;2.22;;
13590;SDS011;6866;50.778;7.206;2023-03-24T08:21:12;9.82;;;2.22;;
13590;SDS011;6866;50.778;7.206;2023-03-24T08:23:38;9.27;;;2.20;;
13590;SDS011;6866;50.778;7.206;2023-03-24T08:26:04;5.55;;;2.20;;
13590;SDS011;6866;50.778;7.206;2023-03-24T08:28:31;8.93;;;2.70;;
13590;SDS011;6866;50.778;7.206;2023-03-24T08:30:57;7.55;;;2.58;;
13590;SDS011;6866;50.778;7.206;2023-03-24T08:33:22;11.35;;;2.60;;
13590;SDS011;6866;50.778;7.206;2023-03-24T08:35:48;16.10;;;3.10;;
13590;SDS011;6866;50.778;7.206;2023-03-24T08:38:13;9.60;;;2.60;;
13590;SDS011;6866;50.778;7.206;2023-03-24T08:40:40;12.05;;;3.10;;
13590;SDS011;6866;50.778;7.206;2023-03-24T08:43:07;6.88;;;2.30;;
13590;SDS011;6866;50.778;7.206;2023-03-24T08:45:36;8.57;;;2.17;;
13590;SDS011;6866;50.778;7.206;2023-03-24T08:48:03;11.15;;;2.55;;
13590;SDS011;6866;50.778;7.206;2023-03-24T08:50:34;13.30;;;2.63;;
13590;SDS011;6866;50.778;7.206;2023-03-24T08:53:02;10.25;;;2.20;;
13590;SDS011;6866;50.778;7.206;2023-03-24T08:55:28;8.55;;;2.28;;
13590;SDS011;6866;50.778;7.206;2023-03-24T08:57:54;11.65;;;2.58;;
13590;SDS011;6866;50.778;7.206;2023-03-24T09:00:20;13.70;;;2.85;;
13590;SDS011;6866;50.778;7.206;2023-03-24T09:02:50;9.60;;;2.60;;
13590;SDS011;6866;50.778;7.206;2023-03-24T09:05:18;11.73;;;2.60;;
13590;SDS011;6866;50.778;7.206;2023-03-24T09:07:45;7.15;;;2.30;;
13590;SDS011;6866;50.778;7.206;2023-03-24T09:10:12;8.63;;;2.40;;
13590;SDS011;6866;50.778;7.206;2023-03-24T09:12:38;10.00;;;2.40;;
13590;SDS011;6866;50.778;7.206;2023-03-24T09:15:04;8.85;;;1.95;;
13590;SDS011;6866;50.778;7.206;2023-03-24T09:17:31;8.75;;;2.00;;
13590;SDS011;6866;50.778;7.206;2023-03-24T09:19:58;8.48;;;2.03;;
13590;SDS011;6866;50.778;7.206;2023-03-24T09:22:23;9.32;;;2.45;;
13590;SDS011;6866;50.778;7.206;2023-03-24T09:24:49;9.85;;;2.03;;
13590;SDS011;6866;50.778;7.206;2023-03-24T09:27:15;7.70;;;1.95;;
13590;SDS011;6866;50.778;7.206;2023-03-24T09:29:41;7.97;;;1.83;;
13590;SDS011;6866;50.778;7.206;2023-03-24T09:32:08;8.00;;;1.98;;
13590;SDS011;6866;50.778;7.206;2023-03-24T09:34:33;5.97;;;1.90;;
13590;SDS011;6866;50.778;7.206;2023-03-24T09:37:00;8.57;;;2.00;;
13590;SDS011;6866;50.778;7.206;2023-03-24T09:39:25;7.57;;;1.98;;
13590;SDS011;6866;50.778;7.206;2023-03-24T09:41:52;9.23;;;2.10;;
13590;SDS011;6866;50.778;7.206;2023-03-24T09:44:22;8.18;;;1.90;;
13590;SDS011;6866;50.778;7.206;2023-03-24T09:52:51;7.28;;;2.20;;
13590;SDS011;6866;50.778;7.206;2023-03-24T09:55:20;8.63;;;2.15;;
13590;SDS011;6866;50.778;7.206;2023-03-24T09:57:49;7.22;;;1.90;;
13590;SDS011;6866;50.778;7.206;2023-03-24T10:00:21;9.10;;;1.70;;
13590;SDS011;6866;50.778;7.206;2023-03-24T10:02:53;7.68;;;1.73;;
13590;SDS011;6866;50.778;7.206;2023-03-24T10:08:35;9.43;;;1.90;;
13590;SDS011;6866;50.778;7.206;2023-03-24T10:14:16;10.13;;;2.08;;
13590;SDS011;6866;50.778;7.206;2023-03-24T10:22:38;7.07;;;2.00;;
13590;SDS011;6866;50.778;7.206;2023-03-24T10:25:41;7.63;;;1.55;;
13590;SDS011;6866;50.778;7.206;2023-03-24T10:28:14;8.38;;;2.00;;
13590;SDS011;6866;50.778;7.206;2023-03-24T10:30:48;9.02;;;1.80;;
13590;SDS011;6866;50.778;7.206;2023-03-24T10:33:17;7.82;;;1.90;;
13590;SDS011;6866;50.778;7.206;2023-03-24T10:36:03;8.40;;;1.52;;
13590;SDS011;6866;50.778;7.206;2023-03-24T10:38:32;9.60;;;1.90;;
13590;SDS011;6866;50.778;7.206;2023-03-24T10:40:57;6.53;;;1.58;;
13590;SDS011;6866;50.778;7.206;2023-03-24T10:43:25;7.50;;;1.58;;
13590;SDS011;6866;50.778;7.206;2023-03-24T10:45:52;7.05;;;1.73;;
13590;SDS011;6866;50.778;7.206;2023-03-24T10:48:33;8.60;;;2.13;;
13590;SDS011;6866;50.778;7.206;2023-03-24T10:51:05;9.82;;;1.80;;
13590;SDS011;6866;50.778;7.206;2023-03-24T10:53:31;8.70;;;1.60;;
13590;SDS011;6866;50.778;7.206;2023-03-24T10:56:00;5.07;;;1.40;;
13590;SDS011;6866;50.778;7.206;2023-03-24T10:58:28;6.05;;;1.80;;
13590;SDS011;6866;50.778;7.206;2023-03-24T11:00:59;6.32;;;1.58;;
13590;SDS011;6866;50.778;7.206;2023-03-24T11:03:28;6.40;;;1.40;;
13590;SDS011;6866;50.778;7.206;2023-03-24T11:05:59;10.00;;;1.63;;
13590;SDS011;6866;50.778;7.206;2023-03-24T11:08:27;15.70;;;6.13;;
13590;SDS011;6866;50.778;7.206;2023-03-24T11:10:56;6.83;;;1.33;;
13590;SDS011;6866;50.778;7.206;2023-03-24T11:21:07;5.85;;;1.63;;
13590;SDS011;6866;50.778;7.206;2023-03-24T11:23:41;5.78;;;1.40;;
13590;SDS011;6866;50.778;7.206;2023-03-24T11:26:12;6.90;;;1.70;;
13590;SDS011;6866;50.778;7.206;2023-03-24T11:28:48;8.05;;;1.30;;
13590;SDS011;6866;50.778;7.206;2023-03-24T11:31:23;7.07;;;1.58;;
13590;SDS011;6866;50.778;7.206;2023-03-24T11:33:59;6.25;;;1.58;;
13590;SDS011;6866;50.778;7.206;2023-03-24T11:39:00;6.53;;;1.73;;
13590;SDS011;6866;50.778;7.206;2023-03-24T11:41:26;7.70;;;1.65;;
13590;SDS011;6866;50.778;7.206;2023-03-24T11:46:39;8.43;;;1.70;;
13590;SDS011;6866;50.778;7.206;2023-03-24T11:49:07;10.50;;;1.88;;
13590;SDS011;6866;50.778;7.206;2023-03-24T11:51:35;7.10;;;1.70;;
13590;SDS011;6866;50.778;7.206;2023-03-24T11:54:04;7.38;;;1.60;;
13590;SDS011;6866;50.778;7.206;2023-03-24T12:02:03;5.13;;;1.10;;
13590;SDS011;6866;50.778;7.206;2023-03-24T12:10:27;6.18;;;1.38;;
13590;SDS011;6866;50.778;7.206;2023-03-24T12:20:43;4.18;;;1.23;;
13590;SDS011;6866;50.778;7.206;2023-03-24T12:23:16;6.30;;;1.40;;
13590;SDS011;6866;50.778;7.206;2023-03-24T12:31:55;7.03;;;1.30;;
13590;SDS011;6866;50.778;7.206;2023-03-24T12:39:46;6.60;;;1.38;;
13590;SDS011;6866;50.778;7.206;2023-03-24T12:42:18;4.78;;;1.25;;
13590;SDS011;6866;50.778;7.206;2023-03-24T12:50:29;21.80;;;1.40;;
13590;SDS011;6866;50.778;7.206;2023-03-24T12:55:48;7.53;;;1.70;;
13590;SDS011;6866;50.778;7.206;2023-03-24T13:01:38;7.95;;;1.50;;
13590;SDS011;6866;50.778;7.206;2023-03-24T13:07:16;5.30;;;1.40;;
13590;SDS011;6866;50.778;7.206;2023-03-24T13:12:31;5.63;;;1.40;;
13590;SDS011;6866;50.778;7.206;2023-03-24T13:15:12;5.05;;;1.38;;
13590;SDS011;6866;50.778;7.206;2023-03-24T13:20:18;4.88;;;1.30;;
13590;SDS011;6866;50.778;7.206;2023-03-24T13:26:54;9.32;;;1.38;;
13590;SDS011;6866;50.778;7.206;2023-03-24T13:34:42;5.75;;;1.40;;
13590;SDS011;6866;50.778;7.206;2023-03-24T13:37:21;7.43;;;1.38;;
13590;SDS011;6866;50.778;7.206;2023-03-24T13:39:52;4.93;;;1.38;;
13590;SDS011;6866;50.778;7.206;2023-03-24T13:42:27;8.43;;;1.30;;
13590;SDS011;6866;50.778;7.206;2023-03-24T13:44:55;8.38;;;3.42;;
13590;SDS011;6866;50.778;7.206;2023-03-24T13:47:25;5.07;;;1.40;;
13590;SDS011;6866;50.778;7.206;2023-03-24T13:50:10;4.97;;;1.20;;
13590;SDS011;6866;50.778;7.206;2023-03-24T13:52:38;6.68;;;1.33;;
13590;SDS011;6866;50.778;7.206;2023-03-24T13:55:12;4.13;;;1.40;;
13590;SDS011;6866;50.778;7.206;2023-03-24T13:57:40;7.90;;;1.42;;
13590;SDS011;6866;50.778;7.206;2023-03-24T14:07:47;4.78;;;1.20;;
13590;SDS011;6866;50.778;7.206;2023-03-24T14:18:46;7.38;;;1.30;;
13590;SDS011;6866;50.778;7.206;2023-03-24T14:21:12;5.75;;;1.20;;
13590;SDS011;6866;50.778;7.206;2023-03-24T14:23:41;5.68;;;1.23;;
13590;SDS011;6866;50.778;7.206;2023-03-24T14:26:14;4.95;;;1.15;;
13590;SDS011;6866;50.778;7.206;2023-03-24T14:28:58;3.70;;;1.13;;
13590;SDS011;6866;50.778;7.206;2023-03-24T14:31:33;5.25;;;1.27;;
13590;SDS011;6866;50.778;7.206;2023-03-24T14:34:08;5.00;;;1.25;;
13590;SDS011;6866;50.778;7.206;2023-03-24T14:36:46;4.78;;;1.10;;
13590;SDS011;6866;50.778;7.206;2023-03-24T14:47:21;5.53;;;1.27;;
13590;SDS011;6866;50.778;7.206;2023-03-24T14:49:50;8.10;;;1.80;;
13590;SDS011;6866;50.778;7.206;2023-03-24T14:52:27;14.35;;;1.63;;
13590;SDS011;6866;50.778;7.206;2023-03-24T14:55:05;6.38;;;1.50;;
13590;SDS011;6866;50.778;7.206;2023-03-24T14:57:40;8.10;;;1.88;;
13590;SDS011;6866;50.778;7.206;2023-03-24T15:00:18;7.93;;;1.65;;
13590;SDS011;6866;50.778;7.206;2023-03-24T15:07:59;8.70;;;1.45;;
13590;SDS011;6866;50.778;7.206;2023-03-24T15:10:32;5.22;;;1.30;;
13590;SDS011;6866;50.778;7.206;2023-03-24T15:13:28;8.13;;;1.42;;
13590;SDS011;6866;50.778;7.206;2023-03-24T15:16:15;9.10;;;1.70;;
13590;SDS011;6866;50.778;7.206;2023-03-24T15:21:23;10.90;;;2.13;;
13590;SDS011;6866;50.778;7.206;2023-03-24T15:23:51;7.82;;;1.92;;
13590;SDS011;6866;50.778;7.206;2023-03-24T15:26:19;8.82;;;1.63;;
13590;SDS011;6866;50.778;7.206;2023-03-24T15:28:57;7.68;;;1.50;;
13590;SDS011;6866;50.778;7.206;2023-03-24T15:34:00;10.73;;;2.95;;
13590;SDS011;6866;50.778;7.206;2023-03-24T15:36:52;8.40;;;1.95;;
13590;SDS011;6866;50.778;7.206;2023-03-24T15:39:19;11.57;;;2.00;;
13590;SDS011;6866;50.778;7.206;2023-03-24T15:41:49;10.37;;;2.00;;
13590;SDS011;6866;50.778;7.206;2023-03-24T15:44:20;10.38;;;2.15;;
13590;SDS011;6866;50.778;7.206;2023-03-24T15:46:49;6.07;;;1.52;;
13590;SDS011;6866;50.778;7.206;2023-03-24T15:49:25;10.35;;;1.98;;
13590;SDS011;6866;50.778;7.206;2023-03-24T15:51:58;6.80;;;1.60;;
13590;SDS011;6866;50.778;7.206;2023-03-24T15:54:30;7.05;;;1.58;;
13590;SDS011;6866;50.778;7.206;2023-03-24T15:57:02;7.22;;;1.70;;
13590;SDS011;6866;50.778;7.206;2023-03-24T15:59:42;6.90;;;1.77;;
13590;SDS011;6866;50.778;7.206;2023-03-24T16:02:25;8.95;;;2.08;;
13590;SDS011;6866;50.778;7.206;2023-03-24T16:05:19;5.68;;;1.65;;
13590;SDS011;6866;50.778;7.206;2023-03-24T16:07:53;7.00;;;1.63;;
13590;SDS011;6866;50.778;7.206;2023-03-24T16:10:54;5.35;;;1.45;;
13590;SDS011;6866;50.778;7.206;2023-03-24T16:13:21;5.07;;;1.50;;
13590;SDS011;6866;50.778;7.206;2023-03-24T16:18:22;6.63;;;1.30;;
13590;SDS011;6866;50.778;7.206;2023-03-24T16:20:51;5.77;;;1.30;;
13590;SDS011;6866;50.778;7.206;2023-03-24T16:23:16;11.43;;;1.63;;
13590;SDS011;6866;50.778;7.206;2023-03-24T16:25:42;7.93;;;1.60;;
13590;SDS011;6866;50.778;7.206;2023-03-24T16:28:11;4.97;;;1.40;;
13590;SDS011;6866;50.778;7.206;2023-03-24T16:30:39;6.43;;;1.50;;
13590;SDS011;6866;50.778;7.206;2023-03-24T16:33:06;7.18;;;1.70;;
13590;SDS011;6866;50.778;7.206;2023-03-24T16:35:33;8.82;;;1.23;;
13590;SDS011;6866;50.778;7.206;2023-03-24T16:37:59;7.90;;;1.58;;
13590;SDS011;6866;50.778;7.206;2023-03-24T16:40:35;5.78;;;1.38;;
13590;SDS011;6866;50.778;7.206;2023-03-24T16:43:03;5.93;;;1.48;;
13590;SDS011;6866;50.778;7.206;2023-03-24T16:45:30;5.03;;;1.20;;
13590;SDS011;6866;50.778;7.206;2023-03-24T16:47:56;3.72;;;0.95;;
13590;SDS011;6866;50.778;7.206;2023-03-24T16:50:30;4.70;;;1.02;;
13590;SDS011;6866;50.778;7.206;2023-03-24T16:52:59;4.20;;;0.80;;
13590;SDS011;6866;50.778;7.206;2023-03-24T16:55:25;6.00;;;1.25;;
13590;SDS011;6866;50.778;7.206;2023-03-24T16:57:51;4.35;;;1.00;;
13590;SDS011;6866;50.778;7.206;2023-03-24T17:00:17;4.18;;;1.48;;
13590;SDS011;6866;50.778;7.206;2023-03-24T17:02:43;5.72;;;1.35;;
13590;SDS011;6866;50.778;7.206;2023-03-24T17:07:48;4.78;;;0.98;;
13590;SDS011;6866;50.778;7.206;2023-03-24T17:10:15;4.70;;;1.30;;
13590;SDS011;6866;50.778;7.206;2023-03-24T17:12:40;9.70;;;1.50;;
13590;SDS011;6866;50.778;7.206;2023-03-24T17:17:52;8.82;;;1.65;;
13590;SDS011;6866;50.778;7.206;2023-03-24T17:20:18;4.65;;;1.38;;
13590;SDS011;6866;50.778;7.206;2023-03-24T17:22:46;8.35;;;1.50;;
13590;SDS011;6866;50.778;7.206;2023-03-24T17:25:14;4.85;;;1.15;;
13590;SDS011;6866;50.778;7.206;2023-03-24T17:27:42;7.07;;;1.40;;
13590;SDS011;6866;50.778;7.206;2023-03-24T17:30:10;7.13;;;1.27;;
13590;SDS011;6866;50.778;7.206;2023-03-24T17:32:43;7.57;;;1.80;;
13590;SDS011;6866;50.778;7.206;2023-03-24T17:35:10;7.88;;;1.75;;
13590;SDS011;6866;50.778;7.206;2023-03-24T17:37:37;6.43;;;1.30;;
13590;SDS011;6866;50.778;7.206;2023-03-24T17:40:03;8.40;;;1.55;;
13590;SDS011;6866;50.778;7.206;2023-03-24T17:42:34;5.00;;;1.20;;
13590;SDS011;6866;50.778;7.206;2023-03-24T17:45:00;5.40;;;1.80;;
13590;SDS011;6866;50.778;7.206;2023-03-24T17:47:28;7.03;;;1.80;;
13590;SDS011;6866;50.778;7.206;2023-03-24T17:49:54;6.30;;;1.70;;
13590;SDS011;6866;50.778;7.206;2023-03-24T17:52:20;7.47;;;1.60;;
13590;SDS011;6866;50.778;7.206;2023-03-24T17:54:46;7.30;;;2.00;;
13590;SDS011;6866;50.778;7.206;2023-03-24T17:57:11;8.70;;;2.88;;
13590;SDS011;6866;50.778;7.206;2023-03-24T17:59:37;8.50;;;3.05;;
13590;SDS011;6866;50.778;7.206;2023-03-24T18:02:03;7.30;;;2.85;;
13590;SDS011;6866;50.778;7.206;2023-03-24T18:04:30;7.28;;;2.72;;
13590;SDS011;6866;50.778;7.206;2023-03-24T18:06:56;10.13;;;2.80;;
13590;SDS011;6866;50.778;7.206;2023-03-24T18:09:23;6.70;;;2.10;;
13590;SDS011;6866;50.778;7.206;2023-03-24T18:11:49;7.53;;;2.10;;
13590;SDS011;6866;50.778;7.206;2023-03-24T18:14:15;7.00;;;2.55;;
13590;SDS011;6866;50.778;7.206;2023-03-24T18:16:40;8.98;;;2.42;;
13590;SDS011;6866;50.778;7.206;2023-03-24T18:19:06;8.82;;;2.75;;
13590;SDS011;6866;50.778;7.206;2023-03-24T18:21:32;7.85;;;1.98;;